Time;durP1;ratioP1;P1;durP2;ratioP2;P2;SDS_P1;SDS_P2;PMS_P1;PMS_P2;Temp;Humidity;BMP_temperature;BMP_pressure;BME280_temperature;BME280_humidity;BME280_pressure;Samples;Min_cycle;Max_cycle;Signal;HPM_P1;HPM_P2
2022/05/05 00:01:52;;;;;;;21.48;12.98;;;;;;;10.28;69.36;101925.88;4946767;29;20542;-67
2022/05/05 00:04:22;;;;;;;18.70;13.32;;;;;;;10.26;68.94;101922.53;4960620;28;20490;-67
2022/05/05 00:06:48;;;;;;;17.98;12.30;;;;;;;10.16;69.18;101904.13;4967130;28;20113;-68
2022/05/05 00:09:13;;;;;;;20.48;14.98;;;;;;;10.13;68.84;101921.59;4966320;28;20038;-68
2022/05/05 00:14:28;;;;;;;21.52;12.63;;;;;;;10.09;68.66;101916.63;4966945;28;20431;-67
2022/05/05 00:16:59;;;;;;;19.70;15.18;;;;;;;10.05;69.48;101924.69;4953822;28;20683;-67
2022/05/05 00:19:26;;;;;;;20.55;15.10;;;;;;;9.97;69.83;101917.34;4947302;28;20031;-68
2022/05/05 00:21:52;;;;;;;19.13;15.02;;;;;;;9.94;70.03;101912.38;4947861;28;20031;-72
2022/05/05 00:24:17;;;;;;;18.95;14.73;;;;;;;9.83;70.55;101915.63;4951537;28;20475;-67
2022/05/05 00:26:43;;;;;;;18.25;12.32;;;;;;;10.01;70.33;101918.84;4947321;28;20110;-67
2022/05/05 00:29:09;;;;;;;20.70;12.25;;;;;;;9.95;69.76;101914.03;4945875;29;20100;-68
2022/05/05 00:31:35;;;;;;;20.70;13.18;;;;;;;9.91;70.57;101917.75;4947661;28;20035;-68
2022/05/05 00:34:00;;;;;;;20.15;14.48;;;;;;;9.89;70.12;101919.59;4945501;29;20475;-68
2022/05/05 00:36:26;;;;;;;21.38;15.35;;;;;;;9.81;70.77;101916.66;4947236;28;20046;-67
2022/05/05 00:38:51;;;;;;;23.58;12.90;;;;;;;9.92;70.40;101919.44;4947453;28;20195;-68
2022/05/05 00:41:16;;;;;;;20.10;13.70;;;;;;;9.89;70.51;101913.59;4946838;28;20031;-67
2022/05/05 00:43:42;;;;;;;20.00;15.77;;;;;;;9.80;71.01;101914.97;4947281;28;20027;-68
2022/05/05 00:46:07;;;;;;;21.08;13.27;;;;;;;9.84;70.64;101903.50;4912480;28;1078360;-69
2022/05/05 00:48:32;;;;;;;21.35;13.43;;;;;;;9.85;71.04;101913.75;4967573;28;20779;-68
2022/05/05 00:50:58;;;;;;;18.65;13.18;;;;;;;9.85;71.32;101918.13;4967222;28;20689;-68
2022/05/05 00:53:24;;;;;;;20.55;13.90;;;;;;;9.77;71.32;101910.00;4964367;28;20034;-68
2022/05/05 00:55:54;;;;;;;20.38;13.48;;;;;;;9.77;71.40;101910.00;4947819;28;20077;-68
2022/05/05 00:58:20;;;;;;;21.88;13.82;;;;;;;9.76;71.03;101908.31;4964854;28;20030;-68
2022/05/05 01:00:45;;;;;;;19.48;16.23;;;;;;;9.63;71.30;101902.19;4970736;28;20076;-68
2022/05/05 01:03:13;;;;;;;22.10;13.98;;;;;;;9.73;71.56;101905.91;4951619;28;20473;-67
2022/05/05 01:05:39;;;;;;;20.15;13.63;;;;;;;9.70;71.35;101908.69;4977828;28;20042;-67
2022/05/05 01:08:05;;;;;;;21.85;14.07;;;;;;;9.63;71.80;101902.19;4983986;28;20034;-68
2022/05/05 01:10:31;;;;;;;21.20;14.57;;;;;;;9.67;72.35;101908.88;5004811;28;20030;-67
2022/05/05 01:12:56;;;;;;;20.02;13.48;;;;;;;9.65;72.53;101910.72;4983338;28;20023;-68
2022/05/05 01:15:22;;;;;;;20.23;14.88;;;;;;;9.60;72.73;101915.34;4988631;28;20041;-68
2022/05/05 01:17:47;;;;;;;21.15;17.13;;;;;;;9.52;73.12;101903.69;4990358;28;20065;-67
2022/05/05 01:20:18;;;;;;;22.70;15.05;;;;;;;9.52;72.84;101916.66;4990448;28;20037;-67
2022/05/05 01:22:44;;;;;;;19.55;13.57;;;;;;;9.54;73.59;101912.22;4985268;28;20382;-67
2022/05/05 01:28:12;;;;;;;22.95;14.43;;;;;;;9.50;73.98;101918.47;4951832;29;20089;-67
2022/05/05 01:30:40;;;;;;;21.40;14.48;;;;;;;9.50;74.06;101920.25;4951575;28;20027;-67
2022/05/05 01:33:19;;;;;;;22.90;14.40;;;;;;;9.46;74.10;101922.19;4951901;28;20435;-67
2022/05/05 01:35:46;;;;;;;24.75;15.23;;;;;;;9.42;74.42;101912.94;4970804;28;20085;-67
2022/05/05 01:38:14;;;;;;;23.08;15.70;;;;;;;9.42;74.55;101915.53;4969879;28;20035;-68
2022/05/05 01:40:40;;;;;;;22.17;19.65;;;;;;;9.23;75.48;101910.59;4987501;28;20041;-67
2022/05/05 01:43:06;;;;;;;23.98;16.30;;;;;;;9.35;75.94;101914.22;4989804;28;20030;-68
2022/05/05 01:45:35;;;;;;;24.33;17.23;;;;;;;9.32;76.30;101910.06;4989531;28;20054;-68
2022/05/05 01:48:01;;;;;;;23.67;16.58;;;;;;;9.34;75.58;101912.53;4966572;28;20465;-67
2022/05/05 01:50:28;;;;;;;22.92;16.60;;;;;;;9.29;75.59;101915.44;4966700;28;20142;-69
2022/05/05 01:52:53;;;;;;;22.27;15.57;;;;;;;9.31;75.74;101913.56;4957118;28;20031;-68
2022/05/05 01:55:21;;;;;;;28.23;20.05;;;;;;;9.23;76.10;101909.75;4964689;28;20027;-68
2022/05/05 01:57:47;;;;;;;22.73;15.85;;;;;;;9.31;76.92;101907.56;4968671;28;20035;-68
2022/05/05 02:00:14;;;;;;;24.98;15.77;;;;;;;9.29;76.40;101919.78;4969958;28;20041;-67
2022/05/05 02:02:40;;;;;;;28.48;17.08;;;;;;;9.23;76.29;101905.44;4970270;28;20117;-67
2022/05/05 02:05:06;;;;;;;24.52;17.33;;;;;;;9.22;76.94;101923.63;4970013;28;20058;-67
2022/05/05 02:07:31;;;;;;;23.40;15.50;;;;;;;9.23;76.93;101922.69;4967711;28;20125;-67
2022/05/05 02:10:01;;;;;;;20.75;15.10;;;;;;;9.20;77.26;101915.13;4950208;28;20039;-69
2022/05/05 02:12:27;;;;;;;24.17;15.60;;;;;;;9.20;77.20;101920.28;4950385;28;20404;-67
2022/05/05 02:14:52;;;;;;;22.70;15.35;;;;;;;9.19;76.88;101929.00;4986419;28;20038;-69
2022/05/05 02:17:18;;;;;;;23.58;15.10;;;;;;;9.17;77.40;101920.47;4989037;28;20080;-67
2022/05/05 02:19:43;;;;;;;21.95;15.18;;;;;;;9.13;77.05;101921.59;4989300;28;20022;-67
2022/05/05 02:22:08;;;;;;;23.77;15.10;;;;;;;9.08;76.55;101910.66;4980931;28;20026;-68
2022/05/05 02:24:34;;;;;;;23.08;15.05;;;;;;;9.12;76.61;101932.84;4984936;28;20030;-68
2022/05/05 02:26:59;;;;;;;24.08;15.43;;;;;;;9.08;76.80;101933.94;4964525;28;20031;-67
2022/05/05 02:29:24;;;;;;;22.73;14.15;;;;;;;9.03;76.45;101929.88;4965036;28;20026;-67
2022/05/05 02:31:50;;;;;;;22.33;14.63;;;;;;;9.01;76.65;101928.31;4969704;28;20034;-68
2022/05/05 02:34:15;;;;;;;25.15;15.48;;;;;;;8.96;76.67;101925.97;4967569;28;20035;-67
2022/05/05 02:39:24;;;;;;;23.83;14.63;;;;;;;8.92;76.46;101932.22;4969268;28;20442;-69
2022/05/05 02:41:49;;;;;;;22.40;15.48;;;;;;;8.90;76.45;101928.91;4973377;28;20045;-67
2022/05/05 02:44:15;;;;;;;23.10;14.82;;;;;;;8.87;76.69;101926.47;4978397;28;20129;-68
2022/05/05 02:46:40;;;;;;;21.95;15.10;;;;;;;8.78;76.69;101914.09;4980958;28;20034;-67
2022/05/05 02:49:05;;;;;;;25.33;16.10;;;;;;;8.82;76.56;101925.06;4988734;28;20109;-67
2022/05/05 02:51:31;;;;;;;22.52;16.15;;;;;;;8.76;76.26;101926.25;4987837;28;20459;-68
2022/05/05 02:56:40;;;;;;;21.55;14.95;;;;;;;8.71;76.52;101923.09;4970773;28;20049;-67
2022/05/05 02:59:05;;;;;;;24.42;15.40;;;;;;;8.70;76.16;101936.94;4961987;28;20027;-68
2022/05/05 03:01:30;;;;;;;24.15;15.60;;;;;;;8.68;76.73;101938.78;4961178;28;20110;-68
2022/05/05 03:03:56;;;;;;;23.73;15.98;;;;;;;8.61;77.79;101929.72;4969195;28;20468;-70
2022/05/05 03:06:21;;;;;;;25.85;16.35;;;;;;;8.59;77.33;101926.38;4968067;28;20570;-68
2022/05/05 03:08:46;;;;;;;22.88;15.02;;;;;;;8.60;76.94;101925.44;4969011;28;20387;-68
2022/05/05 03:11:12;;;;;;;21.75;15.52;;;;;;;8.61;77.28;101927.13;4967204;28;20034;-68
2022/05/05 03:13:38;;;;;;;24.95;15.85;;;;;;;8.56;76.95;101929.13;4976755;28;20030;-68
2022/05/05 03:16:04;;;;;;;23.58;15.95;;;;;;;8.55;76.76;101927.47;4975388;28;20031;-67
2022/05/05 03:18:29;;;;;;;22.10;15.15;;;;;;;8.53;76.98;101935.28;4968752;28;20114;-67
2022/05/05 03:20:54;;;;;;;23.20;16.25;;;;;;;8.53;77.37;101935.28;4983079;28;20460;-67
2022/05/05 03:23:20;;;;;;;26.80;17.45;;;;;;;8.42;76.74;101922.94;4967781;28;20037;-67
2022/05/05 03:25:45;;;;;;;25.90;17.05;;;;;;;8.47;77.22;101931.28;4967796;28;20522;-68
2022/05/05 03:28:11;;;;;;;23.80;17.02;;;;;;;8.45;76.74;101935.72;4968527;28;20042;-67
2022/05/05 03:30:37;;;;;;;27.85;16.98;;;;;;;8.36;77.50;101923.28;4969069;28;20539;-68
2022/05/05 03:33:02;;;;;;;24.55;17.45;;;;;;;8.43;77.06;101934.13;4966751;28;20038;-67
2022/05/05 03:35:27;;;;;;;25.70;18.23;;;;;;;8.37;77.13;101935.31;4967250;28;20081;-67
2022/05/05 03:37:53;;;;;;;24.58;17.27;;;;;;;8.32;77.09;101937.28;4968286;28;20089;-68
2022/05/05 03:40:18;;;;;;;21.75;15.95;;;;;;;8.33;76.48;101940.72;4958183;28;20058;-68
2022/05/05 03:42:43;;;;;;;25.40;17.55;;;;;;;8.29;77.09;101941.78;4957583;28;20121;-67
2022/05/05 03:45:09;;;;;;;21.52;17.05;;;;;;;8.25;76.51;101949.69;4966885;28;20081;-67
2022/05/05 03:47:34;;;;;;;26.55;17.48;;;;;;;8.20;76.88;101937.94;4967317;28;20041;-67
2022/05/05 03:49:59;;;;;;;22.92;16.67;;;;;;;8.15;76.88;101934.78;4966276;28;20040;-67
2022/05/05 03:52:25;;;;;;;23.70;16.85;;;;;;;8.13;77.17;101939.19;4965285;28;20031;-68
2022/05/05 03:54:50;;;;;;;22.70;16.20;;;;;;;8.15;76.79;101950.28;4961572;28;20423;-67
2022/05/05 03:57:15;;;;;;;25.27;17.40;;;;;;;8.07;77.27;101942.09;4956270;28;20030;-68
2022/05/05 03:59:41;;;;;;;27.05;17.65;;;;;;;8.09;77.79;101950.63;4966753;28;20538;-68
2022/05/05 04:02:06;;;;;;;24.00;17.20;;;;;;;8.06;77.80;101955.94;4965191;28;20629;-67
2022/05/05 04:04:31;;;;;;;25.05;17.38;;;;;;;8.04;77.73;101957.78;4965853;28;20105;-67
2022/05/05 04:06:57;;;;;;;26.33;16.98;;;;;;;8.04;77.60;101962.94;4966644;28;20034;-67
2022/05/05 04:09:22;;;;;;;26.00;18.92;;;;;;;8.01;77.59;101960.50;4965745;28;20018;-68
2022/05/05 04:11:47;;;;;;;27.25;17.42;;;;;;;8.01;78.40;101970.84;4966481;28;20027;-68
2022/05/05 04:14:13;;;;;;;25.30;17.58;;;;;;;8.03;78.74;101974.16;4971080;28;20130;-68
2022/05/05 04:16:38;;;;;;;26.58;17.02;;;;;;;7.96;78.90;101956.41;4966612;28;20073;-67
2022/05/05 04:19:04;;;;;;;25.95;17.23;;;;;;;8.02;78.51;101965.56;4966811;28;20035;-67
2022/05/05 04:21:30;;;;;;;24.00;16.85;;;;;;;8.08;79.37;101969.59;4967723;28;20030;-67
2022/05/05 04:23:55;;;;;;;25.00;15.95;;;;;;;8.13;78.91;101972.78;4967748;28;20070;-67
2022/05/05 04:26:22;;;;;;;26.85;16.30;;;;;;;8.12;78.79;101960.78;4947733;28;20034;-67
2022/05/05 04:28:48;;;;;;;23.70;17.00;;;;;;;8.20;78.93;101968.94;4948851;28;20029;-67
2022/05/05 04:31:15;;;;;;;25.88;16.85;;;;;;;8.19;79.24;101975.84;4948341;28;20341;-67
2022/05/05 04:33:42;;;;;;;25.33;16.85;;;;;;;8.19;79.45;101972.44;4954024;28;20023;-68
2022/05/05 04:36:08;;;;;;;22.83;15.95;;;;;;;8.13;79.40;101977.94;4967687;28;20475;-68
2022/05/05 04:38:33;;;;;;;22.98;15.93;;;;;;;8.12;79.02;101978.84;4977486;28;20434;-67
2022/05/05 04:40:59;;;;;;;23.38;16.00;;;;;;;8.04;79.18;101968.09;4967618;28;20502;-67
2022/05/05 04:43:24;;;;;;;22.38;16.00;;;;;;;8.07;79.13;101973.09;4965770;28;20030;-68
2022/05/05 04:45:50;;;;;;;22.25;15.23;;;;;;;8.07;79.43;101980.84;4967280;28;20447;-68
2022/05/05 04:48:15;;;;;;;23.83;15.95;;;;;;;8.03;79.42;101987.06;4966650;28;20049;-67
2022/05/05 04:50:40;;;;;;;25.75;15.85;;;;;;;8.02;79.11;101981.09;4979457;28;20390;-68
2022/05/05 04:53:06;;;;;;;21.85;14.65;;;;;;;8.06;79.18;101992.09;4974198;28;20074;-67
2022/05/05 04:55:31;;;;;;;22.33;15.32;;;;;;;8.04;79.94;101988.78;4946462;28;20035;-67
2022/05/05 04:57:56;;;;;;;24.27;15.60;;;;;;;7.99;79.60;101982.09;4948201;28;20033;-67
2022/05/05 05:00:22;;;;;;;21.13;15.48;;;;;;;8.02;79.21;101977.66;4947798;28;20479;-67
2022/05/05 05:02:48;;;;;;;23.83;15.77;;;;;;;8.01;80.01;101978.59;4946429;29;20066;-68
2022/05/05 05:05:13;;;;;;;24.17;15.27;;;;;;;8.06;79.56;101986.94;4947730;28;20316;-67
2022/05/05 05:07:39;;;;;;;23.38;15.68;;;;;;;8.10;79.96;101993.63;4955635;28;20034;-68
2022/05/05 05:10:05;;;;;;;24.05;16.90;;;;;;;8.16;79.60;101994.13;4958664;28;20034;-67
2022/05/05 05:12:30;;;;;;;24.80;16.38;;;;;;;8.18;79.78;101994.88;4947763;28;20127;-67
2022/05/05 05:14:55;;;;;;;23.33;16.00;;;;;;;8.24;79.46;102001.47;4985042;28;20030;-67
2022/05/05 05:17:21;;;;;;;107.30;34.30;;;;;;;8.21;79.77;101996.47;4986176;28;20061;-68
2022/05/05 05:19:46;;;;;;;115.05;31.02;;;;;;;8.29;79.44;101994.31;4966751;28;20066;-68
2022/05/05 05:22:11;;;;;;;81.53;25.75;;;;;;;8.27;79.53;101996.16;4967075;28;20023;-67
2022/05/05 05:24:37;;;;;;;55.83;22.92;;;;;;;8.33;79.83;102001.00;4965772;28;20386;-67
2022/05/05 05:27:03;;;;;;;73.95;24.63;;;;;;;8.35;80.07;102004.31;4967045;28;20031;-67
2022/05/05 05:29:29;;;;;;;54.85;23.15;;;;;;;8.37;79.94;102017.19;4965383;28;20019;-67
2022/05/05 05:31:54;;;;;;;32.90;17.95;;;;;;;8.36;80.06;102010.34;4965263;28;20085;-67
2022/05/05 05:34:19;;;;;;;24.52;17.15;;;;;;;8.45;80.60;102015.03;4964918;28;20134;-67
2022/05/05 05:36:45;;;;;;;26.35;17.23;;;;;;;8.50;80.23;102018.22;4982340;28;20372;-68
2022/05/05 05:39:10;;;;;;;25.48;16.65;;;;;;;8.58;80.28;102015.22;4966641;28;20042;-67
2022/05/05 05:41:35;;;;;;;22.70;16.80;;;;;;;8.62;79.82;102016.72;4967060;28;20483;-67
2022/05/05 05:44:01;;;;;;;28.20;17.50;;;;;;;8.66;79.31;102023.38;4967137;28;20046;-67
2022/05/05 05:46:26;;;;;;;24.23;15.60;;;;;;;8.69;79.36;102023.22;4968884;28;20059;-67
2022/05/05 05:48:52;;;;;;;23.40;16.63;;;;;;;8.77;78.73;102021.03;4961424;28;20528;-67
2022/05/05 05:51:18;;;;;;;23.83;16.83;;;;;;;8.81;79.15;102032.06;4986920;28;20030;-67
2022/05/05 05:53:43;;;;;;;22.65;16.98;;;;;;;8.87;78.83;102026.53;4989908;28;20388;-67
2022/05/05 05:56:08;;;;;;;23.48;16.92;;;;;;;8.92;78.87;102032.31;4989565;28;20070;-67
2022/05/05 05:58:38;;;;;;;21.20;15.95;;;;;;;8.92;79.03;102020.19;4989649;28;20053;-68
2022/05/05 06:01:03;;;;;;;26.52;17.52;;;;;;;8.89;79.85;102014.34;4989334;28;20034;-67
2022/05/05 06:06:13;;;;;;;25.33;17.08;;;;;;;9.04;78.81;102035.03;4950691;28;20053;-67
2022/05/05 06:08:38;;;;;;;22.95;16.23;;;;;;;9.08;78.34;102040.06;4951090;28;20034;-69
2022/05/05 06:11:04;;;;;;;23.83;17.08;;;;;;;9.09;79.11;102034.78;4951133;28;20035;-67
2022/05/05 06:13:29;;;;;;;23.92;16.70;;;;;;;9.19;79.01;102042.88;4962836;28;20134;-68
2022/05/05 06:15:54;;;;;;;26.92;16.88;;;;;;;9.24;79.25;102040.88;4989421;28;20042;-69
2022/05/05 06:18:20;;;;;;;24.88;17.08;;;;;;;9.32;79.41;102038.66;4980220;28;20046;-68
2022/05/05 06:20:45;;;;;;;23.85;17.05;;;;;;;9.35;78.80;102030.75;4970183;28;20055;-68
2022/05/05 06:23:10;;;;;;;24.23;17.20;;;;;;;9.46;79.03;102045.63;4969620;28;20038;-68
2022/05/05 06:25:36;;;;;;;25.50;16.70;;;;;;;9.56;78.34;102042.44;4969926;28;20038;-67
2022/05/05 06:28:01;;;;;;;25.35;16.05;;;;;;;9.67;78.08;102046.16;4966252;28;20035;-67
2022/05/05 06:30:26;;;;;;;22.30;17.08;;;;;;;9.78;76.51;102051.56;4961434;28;20664;-67
2022/05/05 06:32:52;;;;;;;22.38;15.73;;;;;;;9.92;75.82;102049.00;4966579;28;20459;-67
2022/05/05 06:35:17;;;;;;;22.83;15.70;;;;;;;10.06;75.59;102051.59;4964138;28;20066;-67
2022/05/05 06:37:43;;;;;;;23.88;16.85;;;;;;;10.18;74.84;102044.00;4950373;28;20058;-69
2022/05/05 06:40:09;;;;;;;20.05;14.10;;;;;;;10.32;73.84;102047.47;4948302;29;20385;-67
2022/05/05 06:42:34;;;;;;;22.27;17.33;;;;;;;10.47;72.50;102045.69;4948863;29;20031;-68
2022/05/05 06:45:03;;;;;;;21.55;14.10;;;;;;;10.61;71.41;102048.28;4949656;29;20057;-68
2022/05/05 06:47:29;;;;;;;19.77;15.40;;;;;;;10.75;69.62;102054.34;4960520;28;20035;-67
2022/05/05 06:49:54;;;;;;;18.83;12.13;;;;;;;10.78;68.43;102054.16;4975162;28;20032;-68
2022/05/05 06:52:19;;;;;;;19.35;13.35;;;;;;;10.95;70.53;102061.69;4988381;28;20036;-68
2022/05/05 06:54:45;;;;;;;19.70;13.75;;;;;;;11.03;68.47;102069.84;4989132;28;20060;-68
2022/05/05 06:57:10;;;;;;;18.85;12.20;;;;;;;11.14;64.99;102062.22;4969356;28;20034;-69
2022/05/05 06:59:35;;;;;;;16.67;11.85;;;;;;;11.15;65.62;102069.06;4965516;28;20046;-68
2022/05/05 07:02:03;;;;;;;19.30;12.70;;;;;;;11.22;66.01;102058.28;4967733;28;20045;-67
2022/05/05 07:07:15;;;;;;;19.00;11.95;;;;;;;11.44;65.26;102063.75;4965948;28;20096;-67
2022/05/05 07:12:26;;;;;;;18.05;13.05;;;;;;;11.59;63.33;102070.53;4967224;28;20089;-67
2022/05/05 07:14:51;;;;;;;16.80;10.95;;;;;;;11.64;62.57;102065.88;4968862;28;20027;-70
2022/05/05 07:17:17;;;;;;;17.63;12.18;;;;;;;11.77;63.13;102080.66;4967902;28;20025;-68
2022/05/05 07:19:42;;;;;;;17.40;12.32;;;;;;;11.92;61.78;102079.66;4967558;28;20033;-67
2022/05/05 07:22:08;;;;;;;17.80;12.45;;;;;;;12.00;61.74;102082.56;4967347;28;20030;-68
2022/05/05 07:24:34;;;;;;;17.25;11.38;;;;;;;12.06;59.11;102074.38;4967270;28;20503;-68
2022/05/05 07:27:01;;;;;;;18.02;12.18;;;;;;;12.18;60.90;102081.31;4966831;28;20039;-68
2022/05/05 07:29:27;;;;;;;17.83;12.18;;;;;;;12.22;59.19;102085.38;4967204;28;20376;-67
2022/05/05 07:31:52;;;;;;;17.27;11.77;;;;;;;12.32;60.71;102087.34;4968189;28;20034;-67
2022/05/05 07:34:20;;;;;;;17.23;12.93;;;;;;;12.48;60.23;102098.34;4954872;28;20117;-67
2022/05/05 07:36:46;;;;;;;18.48;13.50;;;;;;;12.48;60.30;102088.78;4957626;28;20027;-67
2022/05/05 07:39:12;;;;;;;18.33;13.32;;;;;;;12.53;59.42;102096.28;4968042;28;20384;-67
2022/05/05 07:41:37;;;;;;;19.08;12.80;;;;;;;12.59;58.64;102101.06;4967821;28;20359;-67
2022/05/05 07:44:05;;;;;;;18.45;13.35;;;;;;;12.69;60.67;102096.88;4968298;28;20054;-68
2022/05/05 07:46:34;;;;;;;19.42;13.85;;;;;;;12.81;59.41;102099.56;4967573;28;20609;-67
2022/05/05 07:49:00;;;;;;;;;;;;;;;12.93;60.85;102103.88;4967997;28;20106;-67
2022/05/05 07:51:25;;;;;;;19.92;13.68;;;;;;;12.89;58.21;102107.63;4966231;28;19910;-68
2022/05/05 07:56:35;;;;;;;19.73;13.82;;;;;;;13.07;59.01;102101.09;4966725;28;20477;-68
2022/05/05 07:59:00;;;;;;;20.90;16.05;;;;;;;12.99;58.38;102087.81;4967966;28;20030;-69
2022/05/05 08:01:26;;;;;;;22.45;15.55;;;;;;;13.12;60.04;102108.59;4966577;28;20047;-68
2022/05/05 08:03:52;;;;;;;22.48;15.98;;;;;;;13.16;59.28;102105.69;4968025;28;20037;-68
2022/05/05 08:06:17;;;;;;;19.88;16.25;;;;;;;13.33;59.54;102112.31;4962913;28;20077;-68
2022/05/05 08:08:43;;;;;;;21.90;16.42;;;;;;;13.41;61.78;102119.56;4954554;28;20031;-69
2022/05/05 08:11:09;;;;;;;22.25;17.83;;;;;;;13.44;60.83;102124.56;4954451;28;20545;-67
2022/05/05 08:13:34;;;;;;;21.63;16.92;;;;;;;13.52;58.98;102122.22;4974585;28;20069;-69
2022/05/05 08:16:00;;;;;;;26.08;17.23;;;;;;;13.50;57.20;102118.91;4979036;28;20039;-68
2022/05/05 08:18:25;;;;;;;22.00;15.80;;;;;;;13.47;57.44;102119.09;4966116;28;20023;-67
2022/05/05 08:20:51;;;;;;;23.30;17.45;;;;;;;13.67;59.13;102123.69;4966571;28;20601;-68
2022/05/05 08:23:17;;;;;;;22.45;16.95;;;;;;;13.80;57.83;102127.03;4965717;28;20023;-68
2022/05/05 08:28:29;;;;;;;22.55;17.38;;;;;;;13.97;59.14;102117.13;4964465;28;20049;-67
2022/05/05 08:30:58;;;;;;;23.42;18.08;;;;;;;14.06;57.85;102126.88;4966138;28;20256;-67
2022/05/05 08:33:27;;;;;;;20.27;16.30;;;;;;;14.03;55.99;102132.31;4963397;28;20027;-67
2022/05/05 08:35:53;;;;;;;23.40;17.63;;;;;;;13.98;56.12;102129.22;4966373;28;20030;-67
2022/05/05 08:38:18;;;;;;;22.27;17.52;;;;;;;14.07;58.15;102125.94;4965547;28;20033;-68
2022/05/05 08:40:44;;;;;;;25.80;18.75;;;;;;;14.18;58.58;102125.13;4966467;28;20035;-67
2022/05/05 08:43:10;;;;;;;25.15;18.45;;;;;;;14.22;57.44;102136.97;4965637;28;20030;-67
2022/05/05 08:45:37;;;;;;;23.48;18.73;;;;;;;14.21;57.74;102136.13;4979232;28;20134;-67
2022/05/05 08:48:08;;;;;;;24.52;20.30;;;;;;;14.22;58.09;102130.00;4966526;28;20039;-67
2022/05/05 08:50:36;;;;;;;26.73;21.73;;;;;;;14.19;57.87;102143.25;4972322;28;20037;-70
2022/05/05 08:53:03;;;;;;;26.92;22.33;;;;;;;14.21;57.60;102146.56;4966082;28;20047;-69
2022/05/05 08:55:29;;;;;;;26.55;21.83;;;;;;;14.20;58.33;102142.31;4966602;28;20082;-68
2022/05/05 08:57:55;;;;;;;25.45;21.27;;;;;;;14.20;58.72;102150.13;4967241;28;20065;-68
2022/05/05 09:00:21;;;;;;;28.85;22.48;;;;;;;14.28;59.14;102147.78;4965161;28;20046;-68
2022/05/05 09:02:53;;;;;;;26.83;21.88;;;;;;;14.21;58.46;102146.56;4965234;28;20030;-68
2022/05/05 09:05:44;;;;;;;31.50;22.52;;;;;;;14.31;59.59;102158.00;4964118;28;20033;-68
2022/05/05 09:08:25;;;;;;;29.13;24.40;;;;;;;14.35;59.60;102159.41;4964356;28;20502;-69
2022/05/05 09:10:51;;;;;;;31.17;24.40;;;;;;;14.25;58.98;102153.22;4959720;28;20062;-68
2022/05/05 09:13:23;;;;;;;30.48;24.92;;;;;;;14.37;59.93;102155.84;4966066;28;20377;-68
2022/05/05 09:15:48;;;;;;;34.50;26.55;;;;;;;14.39;60.52;102159.16;4966602;28;20046;-68
2022/05/05 09:18:18;;;;;;;37.83;28.13;;;;;;;14.40;61.51;102150.41;4966336;28;20027;-68
2022/05/05 09:20:46;;;;;;;35.47;27.52;;;;;;;14.45;60.22;102153.47;4969268;28;20034;-68
2022/05/05 09:24:34;;;;;;;34.05;28.48;;;;;;;14.53;60.98;102159.00;4967951;28;20081;-67
2022/05/05 09:26:26;;;;;;;34.83;28.40;;;;;;;14.46;61.52;102150.78;4968574;28;20089;-68
2022/05/05 09:28:51;;;;;;;34.75;29.92;;;;;;;14.55;61.63;102170.13;4968811;28;20035;-68
2022/05/05 09:31:17;;;;;;;34.58;28.70;;;;;;;14.47;61.07;102157.69;4969219;28;20066;-68
2022/05/05 09:33:44;;;;;;;36.13;30.70;;;;;;;14.56;62.62;102166.56;4969130;28;20022;-69
2022/05/05 09:36:28;;;;;;;37.83;30.63;;;;;;;14.57;62.29;102163.88;4968934;28;20030;-69
2022/05/05 09:39:00;;;;;;;33.22;29.60;;;;;;;14.74;61.77;102165.16;4968956;28;20070;-68
2022/05/05 09:41:30;;;;;;;34.72;30.67;;;;;;;14.69;62.48;102166.47;4967054;28;20026;-68
2022/05/05 09:43:57;;;;;;;33.15;29.52;;;;;;;14.71;60.66;102175.00;4969149;28;20030;-68
2022/05/05 09:46:26;;;;;;;34.85;31.13;;;;;;;14.61;60.79;102165.28;4966422;28;20149;-67
2022/05/05 09:49:18;;;;;;;38.13;32.47;;;;;;;14.67;62.08;102169.19;4969344;28;20137;-68
2022/05/05 09:57:45;;;;;;;;;;;;;;;15.02;62.27;102181.28;4967617;28;20395;-72
2022/05/05 10:05:46;;;;;;;;;;;;;;;15.26;62.10;102174.13;4970007;28;19933;-68
2022/05/05 10:08:14;;;;;;;;;;;;;;;15.34;61.20;102183.94;4968501;28;19964;-69
2022/05/05 10:10:40;;;;;;;;;;;;;;;15.34;61.40;102184.78;4967784;28;19953;-68
2022/05/05 10:13:07;;;;;;;;;;;;;;;15.40;61.51;102184.28;4970224;28;19917;-69
2022/05/05 10:15:35;;;;;;;;;;;;;;;15.50;61.25;102194.84;4966937;28;19921;-68
2022/05/05 10:18:02;;;;;;;;;;;;;;;15.51;61.31;102185.22;4966606;28;19926;-68
2022/05/05 10:20:28;;;;;;;;;;;;;;;15.55;60.61;102191.88;4968002;28;19914;-70
2022/05/05 10:22:57;;;;;;;;;;;;;;;15.53;60.21;102188.53;4967555;28;19964;-67
2022/05/05 10:25:26;;;;;;;;;;;;;;;15.50;60.94;102186.16;4964398;28;19925;-68
2022/05/05 10:27:52;;;;;;;;;;;;;;;15.49;60.57;102187.13;4967079;28;19922;-68
2022/05/05 10:30:34;;;;;;;;;;;;;;;15.49;60.40;102187.97;4968353;28;20038;-69
2022/05/05 10:32:59;;;;;;;;;;;;;;;15.51;61.25;102187.81;4954171;28;19914;-71
2022/05/05 10:35:25;;;;;;;;;;;;;;;15.56;61.61;102188.28;4968952;28;19914;-69
2022/05/05 10:37:50;;;;;;;;;;;;;;;15.61;61.22;102192.19;4969404;28;19920;-69
2022/05/05 10:40:16;;;;;;;;;;;;;;;15.67;61.83;102188.28;4968734;28;20004;-69
2022/05/05 10:42:44;;;;;;;;;;;;;;;15.78;61.04;102184.78;4969683;28;19980;-69
2022/05/05 10:45:12;;;;;;;;;;;;;;;15.89;61.56;102185.56;4969626;28;20009;-69
2022/05/05 10:47:46;;;;;;;;;;;;;;;15.97;61.41;102191.94;4969488;28;20377;-70
2022/05/05 10:50:26;;;;;;;;;;;;;;;16.10;61.16;102188.16;4977139;28;19929;-69
2022/05/05 10:52:52;;;;;;;;;;;;;;;16.20;60.59;102185.63;4973457;28;19921;-69
2022/05/05 10:55:21;;;;;;;;;;;;;;;16.22;60.33;102180.25;4960868;28;20382;-69
2022/05/05 10:57:47;;;;;;;;;;;;;;;16.28;60.69;102191.03;4950551;28;19989;-70
2022/05/05 11:00:12;;;;;;;;;;;;;;;16.40;60.26;102195.25;4950175;28;20449;-69
2022/05/05 11:02:39;;;;;;;;;;;;;;;16.34;60.64;102190.50;4951186;28;19910;-68
2022/05/05 11:05:20;;;;;;;;;;;;;;;16.32;60.16;102186.38;4950116;28;19910;-68
2022/05/05 11:07:49;;;;;;;;;;;;;;;16.32;60.19;102191.63;4957220;28;19950;-68
2022/05/05 11:10:32;;;;;;;;;;;;;;;16.38;60.65;102186.69;4964340;28;19918;-70
2022/05/05 11:12:58;;;;;;;;;;;;;;;16.51;60.68;102196.94;4956308;28;19980;-68
2022/05/05 11:23:49;;;;;;;;;;;;;;;16.80;60.03;102201.50;4969105;28;19921;-69
2022/05/05 11:26:18;;;;;;;;;;;;;;;16.81;59.41;102192.72;4968614;28;19918;-69
2022/05/05 11:28:45;;;;;;;;;;;;;;;16.75;59.17;102194.06;4969297;28;19914;-70
2022/05/05 11:31:18;;;;;;;;;;;;;;;16.71;59.43;102193.50;4969047;28;19925;-69
2022/05/05 11:33:46;;;;;;;;;;;;;;;16.74;58.53;102197.63;4968668;28;19914;-69
2022/05/05 11:36:12;;;;;;;;;;;;;;;16.82;59.93;102195.19;4966818;28;19972;-69
2022/05/05 11:38:40;;;;;;;;;;;;;;;16.98;59.34;102195.53;4959450;28;19961;-69
2022/05/05 11:41:06;;;;;;;;;;;;;;;17.09;57.75;102191.13;4957621;28;19918;-69
2022/05/05 11:46:16;;;;;;;;;;;;;;;17.12;58.30;102190.88;4968307;28;20018;-68
2022/05/05 11:48:43;;;;;;;;;;;;;;;17.18;57.87;102195.56;4968572;28;20381;-69
2022/05/05 11:51:08;;;;;;;;;;;;;;;17.28;58.39;102191.19;4983937;28;20413;-69
2022/05/05 11:53:35;;;;;;;;;;;;;;;17.29;57.37;102192.84;4975301;28;20000;-69
2022/05/05 11:56:01;;;;;;;;;;;;;;;17.30;55.85;102184.00;4966258;28;19918;-70
2022/05/05 12:04:00;;;;;;;;;;;;;;;17.42;57.66;102182.91;4966807;28;19937;-71
2022/05/05 12:06:25;;;;;;;;;;;;;;;17.55;57.05;102181.81;4966877;28;20009;-69
2022/05/05 12:08:51;;;;;;;;;;;;;;;17.65;57.12;102172.97;4967010;28;20004;-71
2022/05/05 12:11:16;;;;;;;;;;;;;;;17.70;56.28;102176.00;4966344;28;20286;-70
2022/05/05 12:13:41;;;;;;;;;;;;;;;17.73;55.58;102180.19;4966942;28;19965;-69
2022/05/05 12:16:08;;;;;;;;;;;;;;;17.66;56.19;102181.66;4967276;28;19932;-70
2022/05/05 12:18:33;;;;;;;;;;;;;;;17.67;56.16;102181.56;4966746;28;19921;-69